sensor_id;sensor_type;location;lat;lon;timestamp;P1;durP1;ratioP1;P2;durP2;ratioP2
2438;SDS011;14509;47.992;7.848;2024-01-15T00:00:37;34.03;;;18.75;;
2438;SDS011;14509;47.992;7.848;2024-01-15T00:02:39;32.20;;;18.30;;
2438;SDS011;14509;47.992;7.848;2024-01-15T00:04:41;28.98;;;17.02;;
2438;SDS011;14509;47.992;7.848;2024-01-15T00:06:43;29.13;;;18.92;;
2438;SDS011;14509;47.992;7.848;2024-01-15T00:08:47;26.88;;;17.42;;
2438;SDS011;14509;47.992;7.848;2024-01-15T00:10:49;34.15;;;17.35;;
2438;SDS011;14509;47.992;7.848;2024-01-15T00:12:51;32.13;;;18.05;;
2438;SDS011;14509;47.992;7.848;2024-01-15T00:14:53;26.33;;;17.20;;
2438;SDS011;14509;47.992;7.848;2024-01-15T00:16:54;30.63;;;19.45;;
2438;SDS011;14509;47.992;7.848;2024-01-15T00:18:55;31.05;;;17.38;;
2438;SDS011;14509;47.992;7.848;2024-01-15T00:20:57;34.75;;;19.40;;
2438;SDS011;14509;47.992;7.848;2024-01-15T00:22:59;32.00;;;18.13;;
2438;SDS011;14509;47.992;7.848;2024-01-15T00:25:02;37.10;;;21.60;;
2438;SDS011;14509;47.992;7.848;2024-01-15T00:27:04;30.98;;;19.20;;
2438;SDS011;14509;47.992;7.848;2024-01-15T00:29:06;34.53;;;19.52;;
2438;SDS011;14509;47.992;7.848;2024-01-15T00:31:07;34.58;;;17.67;;
2438;SDS011;14509;47.992;7.848;2024-01-15T00:33:09;33.72;;;18.30;;
2438;SDS011;14509;47.992;7.848;2024-01-15T00:35:12;31.75;;;18.08;;
2438;SDS011;14509;47.992;7.848;2024-01-15T00:37:14;32.83;;;18.73;;
2438;SDS011;14509;47.992;7.848;2024-01-15T00:39:16;34.63;;;18.27;;
2438;SDS011;14509;47.992;7.848;2024-01-15T00:41:19;32.22;;;18.35;;
2438;SDS011;14509;47.992;7.848;2024-01-15T00:43:21;35.42;;;19.80;;
2438;SDS011;14509;47.992;7.848;2024-01-15T00:45:22;32.55;;;18.00;;
2438;SDS011;14509;47.992;7.848;2024-01-15T00:47:24;33.78;;;18.02;;
2438;SDS011;14509;47.992;7.848;2024-01-15T00:49:26;32.97;;;17.67;;
2438;SDS011;14509;47.992;7.848;2024-01-15T00:51:27;33.63;;;18.33;;
2438;SDS011;14509;47.992;7.848;2024-01-15T00:53:29;28.92;;;17.20;;
2438;SDS011;14509;47.992;7.848;2024-01-15T00:55:31;32.25;;;16.60;;
2438;SDS011;14509;47.992;7.848;2024-01-15T00:57:34;33.70;;;18.33;;
2438;SDS011;14509;47.992;7.848;2024-01-15T00:59:36;27.87;;;17.17;;
2438;SDS011;14509;47.992;7.848;2024-01-15T01:01:38;38.65;;;18.77;;
2438;SDS011;14509;47.992;7.848;2024-01-15T01:03:42;27.33;;;17.30;;
2438;SDS011;14509;47.992;7.848;2024-01-15T01:05:44;31.33;;;17.00;;
2438;SDS011;14509;47.992;7.848;2024-01-15T01:07:46;28.95;;;17.80;;
2438;SDS011;14509;47.992;7.848;2024-01-15T01:09:48;35.83;;;19.48;;
2438;SDS011;14509;47.992;7.848;2024-01-15T01:11:49;34.17;;;17.88;;
2438;SDS011;14509;47.992;7.848;2024-01-15T01:13:52;32.40;;;18.83;;
2438;SDS011;14509;47.992;7.848;2024-01-15T01:15:53;30.90;;;18.10;;
2438;SDS011;14509;47.992;7.848;2024-01-15T01:17:55;31.42;;;18.98;;
2438;SDS011;14509;47.992;7.848;2024-01-15T01:19:57;31.90;;;18.33;;
2438;SDS011;14509;47.992;7.848;2024-01-15T01:21:59;28.77;;;17.70;;
2438;SDS011;14509;47.992;7.848;2024-01-15T01:24:01;29.70;;;16.00;;
2438;SDS011;14509;47.992;7.848;2024-01-15T01:26:02;29.95;;;16.65;;
2438;SDS011;14509;47.992;7.848;2024-01-15T01:28:04;29.58;;;17.08;;
2438;SDS011;14509;47.992;7.848;2024-01-15T01:30:08;28.17;;;17.08;;
2438;SDS011;14509;47.992;7.848;2024-01-15T01:32:10;26.87;;;17.13;;
2438;SDS011;14509;47.992;7.848;2024-01-15T01:34:13;33.38;;;18.13;;
2438;SDS011;14509;47.992;7.848;2024-01-15T01:36:16;33.17;;;17.53;;
2438;SDS011;14509;47.992;7.848;2024-01-15T01:38:16;27.67;;;17.02;;
2438;SDS011;14509;47.992;7.848;2024-01-15T01:40:18;31.00;;;17.25;;
2438;SDS011;14509;47.992;7.848;2024-01-15T01:42:20;29.90;;;18.48;;
2438;SDS011;14509;47.992;7.848;2024-01-15T01:44:21;31.60;;;18.23;;
2438;SDS011;14509;47.992;7.848;2024-01-15T01:46:24;28.33;;;17.95;;
2438;SDS011;14509;47.992;7.848;2024-01-15T01:48:28;34.58;;;18.17;;
2438;SDS011;14509;47.992;7.848;2024-01-15T01:50:30;29.20;;;17.42;;
2438;SDS011;14509;47.992;7.848;2024-01-15T01:52:33;33.50;;;18.92;;
2438;SDS011;14509;47.992;7.848;2024-01-15T01:54:34;30.77;;;17.73;;
2438;SDS011;14509;47.992;7.848;2024-01-15T01:56:38;26.50;;;17.15;;
2438;SDS011;14509;47.992;7.848;2024-01-15T01:58:40;29.55;;;16.30;;
2438;SDS011;14509;47.992;7.848;2024-01-15T02:00:41;27.85;;;16.88;;
2438;SDS011;14509;47.992;7.848;2024-01-15T02:02:44;28.25;;;15.98;;
2438;SDS011;14509;47.992;7.848;2024-01-15T02:04:46;29.20;;;15.50;;
2438;SDS011;14509;47.992;7.848;2024-01-15T02:06:49;28.52;;;17.10;;
2438;SDS011;14509;47.992;7.848;2024-01-15T02:08:51;29.17;;;18.02;;
2438;SDS011;14509;47.992;7.848;2024-01-15T02:10:53;28.55;;;17.50;;
2438;SDS011;14509;47.992;7.848;2024-01-15T02:12:55;30.42;;;16.27;;
2438;SDS011;14509;47.992;7.848;2024-01-15T02:14:56;23.02;;;14.40;;
2438;SDS011;14509;47.992;7.848;2024-01-15T02:16:58;26.92;;;15.65;;
2438;SDS011;14509;47.992;7.848;2024-01-15T02:19:01;29.38;;;17.13;;
2438;SDS011;14509;47.992;7.848;2024-01-15T02:21:03;27.35;;;16.83;;
2438;SDS011;14509;47.992;7.848;2024-01-15T02:23:10;27.52;;;16.60;;
2438;SDS011;14509;47.992;7.848;2024-01-15T02:25:12;26.42;;;15.93;;
2438;SDS011;14509;47.992;7.848;2024-01-15T02:27:14;28.20;;;16.75;;
2438;SDS011;14509;47.992;7.848;2024-01-15T02:29:16;27.58;;;16.90;;
2438;SDS011;14509;47.992;7.848;2024-01-15T02:31:19;29.25;;;17.65;;
2438;SDS011;14509;47.992;7.848;2024-01-15T02:33:21;28.77;;;17.52;;
2438;SDS011;14509;47.992;7.848;2024-01-15T02:35:22;30.17;;;17.90;;
2438;SDS011;14509;47.992;7.848;2024-01-15T02:37:24;27.90;;;17.20;;
2438;SDS011;14509;47.992;7.848;2024-01-15T02:39:28;30.85;;;17.40;;
2438;SDS011;14509;47.992;7.848;2024-01-15T02:41:30;31.33;;;18.70;;
2438;SDS011;14509;47.992;7.848;2024-01-15T02:43:32;32.13;;;18.30;;
2438;SDS011;14509;47.992;7.848;2024-01-15T02:45:32;31.60;;;16.60;;
2438;SDS011;14509;47.992;7.848;2024-01-15T02:47:34;28.85;;;17.10;;
2438;SDS011;14509;47.992;7.848;2024-01-15T02:49:36;26.20;;;17.02;;
2438;SDS011;14509;47.992;7.848;2024-01-15T02:51:38;27.17;;;17.17;;
2438;SDS011;14509;47.992;7.848;2024-01-15T02:53:40;30.92;;;17.42;;
2438;SDS011;14509;47.992;7.848;2024-01-15T02:55:43;28.17;;;16.70;;
2438;SDS011;14509;47.992;7.848;2024-01-15T02:57:44;28.45;;;17.50;;
2438;SDS011;14509;47.992;7.848;2024-01-15T02:59:46;31.63;;;18.38;;
2438;SDS011;14509;47.992;7.848;2024-01-15T03:01:48;28.67;;;17.65;;
2438;SDS011;14509;47.992;7.848;2024-01-15T03:03:50;34.17;;;19.10;;
2438;SDS011;14509;47.992;7.848;2024-01-15T03:05:52;33.08;;;18.80;;
2438;SDS011;14509;47.992;7.848;2024-01-15T03:07:53;31.43;;;17.43;;
2438;SDS011;14509;47.992;7.848;2024-01-15T03:09:54;31.55;;;18.52;;
2438;SDS011;14509;47.992;7.848;2024-01-15T03:11:58;27.52;;;17.33;;
2438;SDS011;14509;47.992;7.848;2024-01-15T03:14:00;29.20;;;17.20;;
2438;SDS011;14509;47.992;7.848;2024-01-15T03:16:01;31.23;;;18.48;;
2438;SDS011;14509;47.992;7.848;2024-01-15T03:18:03;30.45;;;17.52;;
2438;SDS011;14509;47.992;7.848;2024-01-15T03:20:06;32.38;;;18.63;;
2438;SDS011;14509;47.992;7.848;2024-01-15T03:22:08;32.70;;;19.38;;
2438;SDS011;14509;47.992;7.848;2024-01-15T03:24:09;30.93;;;17.87;;
2438;SDS011;14509;47.992;7.848;2024-01-15T03:26:11;28.88;;;18.00;;
2438;SDS011;14509;47.992;7.848;2024-01-15T03:28:14;29.60;;;18.20;;
2438;SDS011;14509;47.992;7.848;2024-01-15T03:30:16;31.70;;;18.35;;
2438;SDS011;14509;47.992;7.848;2024-01-15T03:32:18;33.57;;;17.00;;
2438;SDS011;14509;47.992;7.848;2024-01-15T03:34:20;36.78;;;18.95;;
2438;SDS011;14509;47.992;7.848;2024-01-15T03:36:22;32.28;;;17.88;;
2438;SDS011;14509;47.992;7.848;2024-01-15T03:38:24;33.08;;;16.75;;
2438;SDS011;14509;47.992;7.848;2024-01-15T03:42:35;33.67;;;19.40;;
2438;SDS011;14509;47.992;7.848;2024-01-15T03:44:38;33.60;;;19.83;;
2438;SDS011;14509;47.992;7.848;2024-01-15T03:46:40;31.35;;;18.40;;
2438;SDS011;14509;47.992;7.848;2024-01-15T03:48:42;28.77;;;17.60;;
2438;SDS011;14509;47.992;7.848;2024-01-15T03:50:42;35.87;;;20.33;;
2438;SDS011;14509;47.992;7.848;2024-01-15T03:52:44;32.33;;;19.83;;
2438;SDS011;14509;47.992;7.848;2024-01-15T03:54:46;31.95;;;18.60;;
2438;SDS011;14509;47.992;7.848;2024-01-15T03:56:48;32.60;;;19.08;;
2438;SDS011;14509;47.992;7.848;2024-01-15T03:58:50;33.78;;;19.30;;
2438;SDS011;14509;47.992;7.848;2024-01-15T04:00:53;32.80;;;19.10;;
2438;SDS011;14509;47.992;7.848;2024-01-15T04:02:55;36.85;;;19.30;;
2438;SDS011;14509;47.992;7.848;2024-01-15T04:04:57;34.33;;;19.38;;
2438;SDS011;14509;47.992;7.848;2024-01-15T04:06:58;31.90;;;19.02;;
2438;SDS011;14509;47.992;7.848;2024-01-15T04:08:59;33.80;;;19.40;;
2438;SDS011;14509;47.992;7.848;2024-01-15T04:11:01;33.97;;;19.07;;
2438;SDS011;14509;47.992;7.848;2024-01-15T04:13:04;31.15;;;17.35;;
2438;SDS011;14509;47.992;7.848;2024-01-15T04:15:06;33.00;;;18.27;;
2438;SDS011;14509;47.992;7.848;2024-01-15T04:17:09;32.80;;;18.25;;
2438;SDS011;14509;47.992;7.848;2024-01-15T04:19:11;36.05;;;18.88;;
2438;SDS011;14509;47.992;7.848;2024-01-15T04:21:13;33.05;;;18.25;;
2438;SDS011;14509;47.992;7.848;2024-01-15T04:23:15;33.53;;;18.92;;
2438;SDS011;14509;47.992;7.848;2024-01-15T04:25:17;32.65;;;19.60;;
2438;SDS011;14509;47.992;7.848;2024-01-15T04:27:19;36.05;;;20.40;;
2438;SDS011;14509;47.992;7.848;2024-01-15T04:29:21;35.30;;;19.02;;
2438;SDS011;14509;47.992;7.848;2024-01-15T04:31:23;31.15;;;18.55;;
2438;SDS011;14509;47.992;7.848;2024-01-15T04:33:26;33.78;;;18.23;;
2438;SDS011;14509;47.992;7.848;2024-01-15T04:35:27;33.10;;;19.50;;
2438;SDS011;14509;47.992;7.848;2024-01-15T04:37:29;31.20;;;19.42;;
2438;SDS011;14509;47.992;7.848;2024-01-15T04:39:31;30.60;;;17.85;;
2438;SDS011;14509;47.992;7.848;2024-01-15T04:41:33;35.10;;;19.80;;
2438;SDS011;14509;47.992;7.848;2024-01-15T04:43:35;34.40;;;19.75;;
2438;SDS011;14509;47.992;7.848;2024-01-15T04:45:37;33.45;;;21.27;;
2438;SDS011;14509;47.992;7.848;2024-01-15T04:47:39;30.55;;;20.50;;
2438;SDS011;14509;47.992;7.848;2024-01-15T04:49:42;35.65;;;20.15;;
2438;SDS011;14509;47.992;7.848;2024-01-15T04:51:44;31.15;;;19.70;;
2438;SDS011;14509;47.992;7.848;2024-01-15T04:53:46;39.35;;;20.80;;
2438;SDS011;14509;47.992;7.848;2024-01-15T04:55:47;34.45;;;20.23;;
2438;SDS011;14509;47.992;7.848;2024-01-15T04:57:49;35.97;;;20.73;;
2438;SDS011;14509;47.992;7.848;2024-01-15T04:59:51;36.35;;;21.00;;
2438;SDS011;14509;47.992;7.848;2024-01-15T05:01:52;38.45;;;20.70;;
2438;SDS011;14509;47.992;7.848;2024-01-15T05:03:54;34.30;;;19.83;;
2438;SDS011;14509;47.992;7.848;2024-01-15T05:05:57;40.38;;;21.35;;
2438;SDS011;14509;47.992;7.848;2024-01-15T05:07:58;35.03;;;19.83;;
2438;SDS011;14509;47.992;7.848;2024-01-15T05:10:00;37.40;;;21.27;;
2438;SDS011;14509;47.992;7.848;2024-01-15T05:12:02;37.42;;;20.15;;
2438;SDS011;14509;47.992;7.848;2024-01-15T05:14:05;40.20;;;21.88;;
2438;SDS011;14509;47.992;7.848;2024-01-15T05:16:07;32.78;;;19.08;;
2438;SDS011;14509;47.992;7.848;2024-01-15T05:18:09;35.28;;;19.15;;
2438;SDS011;14509;47.992;7.848;2024-01-15T05:20:11;33.67;;;19.73;;
2438;SDS011;14509;47.992;7.848;2024-01-15T05:22:14;37.50;;;20.20;;
2438;SDS011;14509;47.992;7.848;2024-01-15T05:24:16;35.83;;;20.13;;
2438;SDS011;14509;47.992;7.848;2024-01-15T05:26:18;36.97;;;20.35;;
2438;SDS011;14509;47.992;7.848;2024-01-15T05:28:20;34.08;;;19.10;;
2438;SDS011;14509;47.992;7.848;2024-01-15T05:30:21;34.05;;;19.65;;
2438;SDS011;14509;47.992;7.848;2024-01-15T05:32:23;32.85;;;18.92;;
2438;SDS011;14509;47.992;7.848;2024-01-15T05:34:25;31.65;;;17.95;;
2438;SDS011;14509;47.992;7.848;2024-01-15T05:36:27;32.63;;;19.27;;
2438;SDS011;14509;47.992;7.848;2024-01-15T05:38:30;32.60;;;18.73;;
2438;SDS011;14509;47.992;7.848;2024-01-15T05:40:32;36.38;;;19.60;;
2438;SDS011;14509;47.992;7.848;2024-01-15T05:42:34;33.63;;;18.77;;
2438;SDS011;14509;47.992;7.848;2024-01-15T05:44:36;31.48;;;19.23;;
2438;SDS011;14509;47.992;7.848;2024-01-15T05:46:37;32.15;;;17.55;;
2438;SDS011;14509;47.992;7.848;2024-01-15T05:48:39;34.17;;;18.15;;
2438;SDS011;14509;47.992;7.848;2024-01-15T05:50:41;32.78;;;16.58;;
2438;SDS011;14509;47.992;7.848;2024-01-15T05:52:43;31.92;;;17.42;;
2438;SDS011;14509;47.992;7.848;2024-01-15T05:54:46;29.63;;;16.67;;
2438;SDS011;14509;47.992;7.848;2024-01-15T05:56:49;30.25;;;18.13;;
2438;SDS011;14509;47.992;7.848;2024-01-15T05:58:51;29.92;;;16.35;;
2438;SDS011;14509;47.992;7.848;2024-01-15T06:00:53;29.52;;;16.45;;
2438;SDS011;14509;47.992;7.848;2024-01-15T06:02:54;32.43;;;16.50;;
2438;SDS011;14509;47.992;7.848;2024-01-15T06:04:55;36.00;;;18.02;;
2438;SDS011;14509;47.992;7.848;2024-01-15T06:06:57;30.52;;;17.70;;
2438;SDS011;14509;47.992;7.848;2024-01-15T06:08:59;32.67;;;15.82;;
2438;SDS011;14509;47.992;7.848;2024-01-15T06:11:06;32.05;;;16.73;;
2438;SDS011;14509;47.992;7.848;2024-01-15T06:13:08;30.85;;;17.30;;
2438;SDS011;14509;47.992;7.848;2024-01-15T06:15:10;30.70;;;17.33;;
2438;SDS011;14509;47.992;7.848;2024-01-15T06:17:11;33.95;;;17.80;;
2438;SDS011;14509;47.992;7.848;2024-01-15T06:19:13;32.42;;;16.90;;
2438;SDS011;14509;47.992;7.848;2024-01-15T06:21:15;29.17;;;16.10;;
2438;SDS011;14509;47.992;7.848;2024-01-15T06:23:17;32.57;;;18.30;;
2438;SDS011;14509;47.992;7.848;2024-01-15T06:25:19;28.10;;;15.07;;
2438;SDS011;14509;47.992;7.848;2024-01-15T06:27:22;33.00;;;16.85;;
2438;SDS011;14509;47.992;7.848;2024-01-15T06:29:25;28.57;;;16.07;;
2438;SDS011;14509;47.992;7.848;2024-01-15T06:31:27;27.38;;;16.27;;
2438;SDS011;14509;47.992;7.848;2024-01-15T06:33:29;27.77;;;16.27;;
2438;SDS011;14509;47.992;7.848;2024-01-15T06:35:31;27.95;;;16.00;;
2438;SDS011;14509;47.992;7.848;2024-01-15T06:37:34;31.60;;;16.10;;
2438;SDS011;14509;47.992;7.848;2024-01-15T06:39:36;29.45;;;17.27;;
2438;SDS011;14509;47.992;7.848;2024-01-15T06:41:38;25.85;;;14.90;;
2438;SDS011;14509;47.992;7.848;2024-01-15T06:43:45;25.73;;;14.20;;
2438;SDS011;14509;47.992;7.848;2024-01-15T06:45:46;28.20;;;16.55;;
2438;SDS011;14509;47.992;7.848;2024-01-15T06:47:47;29.07;;;14.60;;
2438;SDS011;14509;47.992;7.848;2024-01-15T06:49:49;27.55;;;15.13;;
2438;SDS011;14509;47.992;7.848;2024-01-15T06:51:52;25.75;;;14.45;;
2438;SDS011;14509;47.992;7.848;2024-01-15T06:53:53;27.75;;;14.13;;
2438;SDS011;14509;47.992;7.848;2024-01-15T06:55:55;26.75;;;14.48;;
2438;SDS011;14509;47.992;7.848;2024-01-15T06:57:57;29.10;;;15.50;;
2438;SDS011;14509;47.992;7.848;2024-01-15T07:00:00;24.70;;;14.95;;
2438;SDS011;14509;47.992;7.848;2024-01-15T07:02:01;26.07;;;13.70;;
2438;SDS011;14509;47.992;7.848;2024-01-15T07:04:03;27.90;;;13.35;;
2438;SDS011;14509;47.992;7.848;2024-01-15T07:06:04;27.25;;;13.45;;
2438;SDS011;14509;47.992;7.848;2024-01-15T07:08:06;24.60;;;13.82;;
2438;SDS011;14509;47.992;7.848;2024-01-15T07:10:08;23.80;;;13.27;;
2438;SDS011;14509;47.992;7.848;2024-01-15T07:12:10;21.20;;;12.80;;
2438;SDS011;14509;47.992;7.848;2024-01-15T07:14:12;21.47;;;12.10;;
2438;SDS011;14509;47.992;7.848;2024-01-15T07:16:15;19.73;;;11.35;;
2438;SDS011;14509;47.992;7.848;2024-01-15T07:18:17;20.77;;;11.32;;
2438;SDS011;14509;47.992;7.848;2024-01-15T07:20:19;19.65;;;11.52;;
2438;SDS011;14509;47.992;7.848;2024-01-15T07:22:21;16.60;;;9.30;;
2438;SDS011;14509;47.992;7.848;2024-01-15T07:24:23;17.73;;;8.90;;
2438;SDS011;14509;47.992;7.848;2024-01-15T07:26:24;15.10;;;8.50;;
2438;SDS011;14509;47.992;7.848;2024-01-15T07:28:26;14.60;;;8.18;;
2438;SDS011;14509;47.992;7.848;2024-01-15T07:30:32;16.70;;;9.35;;
2438;SDS011;14509;47.992;7.848;2024-01-15T07:32:35;13.38;;;7.60;;
2438;SDS011;14509;47.992;7.848;2024-01-15T07:34:38;14.15;;;8.18;;
2438;SDS011;14509;47.992;7.848;2024-01-15T07:36:39;11.85;;;6.90;;
2438;SDS011;14509;47.992;7.848;2024-01-15T07:38:45;9.20;;;6.53;;
2438;SDS011;14509;47.992;7.848;2024-01-15T07:40:47;10.60;;;6.68;;
2438;SDS011;14509;47.992;7.848;2024-01-15T07:42:50;13.37;;;6.50;;
2438;SDS011;14509;47.992;7.848;2024-01-15T07:44:52;11.15;;;6.10;;
2438;SDS011;14509;47.992;7.848;2024-01-15T07:46:53;11.03;;;6.10;;
2438;SDS011;14509;47.992;7.848;2024-01-15T07:48:56;10.90;;;6.30;;
2438;SDS011;14509;47.992;7.848;2024-01-15T07:50:58;10.27;;;6.28;;
2438;SDS011;14509;47.992;7.848;2024-01-15T07:53:00;10.90;;;6.30;;
2438;SDS011;14509;47.992;7.848;2024-01-15T07:55:02;10.27;;;6.35;;
2438;SDS011;14509;47.992;7.848;2024-01-15T07:57:05;11.35;;;6.68;;
2438;SDS011;14509;47.992;7.848;2024-01-15T07:59:06;11.13;;;6.47;;
2438;SDS011;14509;47.992;7.848;2024-01-15T08:01:08;10.77;;;6.28;;
2438;SDS011;14509;47.992;7.848;2024-01-15T08:03:10;11.35;;;6.72;;
2438;SDS011;14509;47.992;7.848;2024-01-15T08:05:13;12.70;;;7.28;;
2438;SDS011;14509;47.992;7.848;2024-01-15T08:07:15;12.18;;;6.80;;
2438;SDS011;14509;47.992;7.848;2024-01-15T08:09:17;11.90;;;6.90;;
2438;SDS011;14509;47.992;7.848;2024-01-15T08:11:19;10.90;;;6.17;;
2438;SDS011;14509;47.992;7.848;2024-01-15T08:13:21;10.52;;;5.88;;
2438;SDS011;14509;47.992;7.848;2024-01-15T08:15:23;11.82;;;6.05;;
2438;SDS011;14509;47.992;7.848;2024-01-15T08:17:25;10.05;;;5.65;;
2438;SDS011;14509;47.992;7.848;2024-01-15T08:19:29;8.57;;;5.83;;
2438;SDS011;14509;47.992;7.848;2024-01-15T08:21:33;7.70;;;5.10;;
2438;SDS011;14509;47.992;7.848;2024-01-15T08:23:35;8.17;;;4.90;;
2438;SDS011;14509;47.992;7.848;2024-01-15T08:25:36;5.25;;;3.55;;
2438;SDS011;14509;47.992;7.848;2024-01-15T08:27:38;6.47;;;3.80;;
2438;SDS011;14509;47.992;7.848;2024-01-15T08:29:40;7.35;;;3.35;;
2438;SDS011;14509;47.992;7.848;2024-01-15T08:31:42;5.30;;;3.45;;
2438;SDS011;14509;47.992;7.848;2024-01-15T08:33:44;5.97;;;3.30;;
2438;SDS011;14509;47.992;7.848;2024-01-15T08:35:46;5.55;;;3.10;;
2438;SDS011;14509;47.992;7.848;2024-01-15T08:37:49;5.80;;;3.47;;
2438;SDS011;14509;47.992;7.848;2024-01-15T08:39:51;5.10;;;3.80;;
2438;SDS011;14509;47.992;7.848;2024-01-15T08:41:53;5.50;;;3.40;;
2438;SDS011;14509;47.992;7.848;2024-01-15T08:43:55;6.75;;;3.50;;
2438;SDS011;14509;47.992;7.848;2024-01-15T08:45:57;6.05;;;3.50;;
2438;SDS011;14509;47.992;7.848;2024-01-15T08:47:59;8.13;;;5.03;;
2438;SDS011;14509;47.992;7.848;2024-01-15T08:50:02;10.15;;;5.32;;
2438;SDS011;14509;47.992;7.848;2024-01-15T08:52:05;8.40;;;5.20;;
2438;SDS011;14509;47.992;7.848;2024-01-15T08:54:09;7.32;;;3.83;;
2438;SDS011;14509;47.992;7.848;2024-01-15T08:56:11;4.82;;;3.15;;
2438;SDS011;14509;47.992;7.848;2024-01-15T08:58:13;5.55;;;4.03;;
2438;SDS011;14509;47.992;7.848;2024-01-15T09:00:15;6.22;;;3.83;;
2438;SDS011;14509;47.992;7.848;2024-01-15T09:02:18;10.50;;;5.90;;
2438;SDS011;14509;47.992;7.848;2024-01-15T09:04:20;5.03;;;3.05;;
2438;SDS011;14509;47.992;7.848;2024-01-15T09:06:22;4.47;;;3.20;;
2438;SDS011;14509;47.992;7.848;2024-01-15T09:08:24;7.60;;;4.53;;
2438;SDS011;14509;47.992;7.848;2024-01-15T09:10:29;7.40;;;4.20;;
2438;SDS011;14509;47.992;7.848;2024-01-15T09:12:31;5.00;;;3.47;;
2438;SDS011;14509;47.992;7.848;2024-01-15T09:14:33;5.20;;;3.70;;
2438;SDS011;14509;47.992;7.848;2024-01-15T09:16:35;4.55;;;3.15;;
2438;SDS011;14509;47.992;7.848;2024-01-15T09:18:38;6.15;;;4.00;;
2438;SDS011;14509;47.992;7.848;2024-01-15T09:20:39;7.30;;;4.00;;
2438;SDS011;14509;47.992;7.848;2024-01-15T09:22:42;5.25;;;3.60;;
2438;SDS011;14509;47.992;7.848;2024-01-15T09:24:44;4.82;;;3.00;;
2438;SDS011;14509;47.992;7.848;2024-01-15T09:26:49;4.43;;;3.20;;
2438;SDS011;14509;47.992;7.848;2024-01-15T09:28:51;4.70;;;3.72;;
2438;SDS011;14509;47.992;7.848;2024-01-15T09:30:53;5.45;;;3.92;;
2438;SDS011;14509;47.992;7.848;2024-01-15T09:32:57;5.40;;;3.72;;
2438;SDS011;14509;47.992;7.848;2024-01-15T09:34:59;6.32;;;4.00;;
2438;SDS011;14509;47.992;7.848;2024-01-15T09:37:02;6.50;;;3.70;;
2438;SDS011;14509;47.992;7.848;2024-01-15T09:39:04;5.60;;;3.70;;
2438;SDS011;14509;47.992;7.848;2024-01-15T09:41:08;4.80;;;3.63;;
2438;SDS011;14509;47.992;7.848;2024-01-15T09:43:11;5.95;;;4.25;;
2438;SDS011;14509;47.992;7.848;2024-01-15T09:45:14;7.10;;;4.33;;
2438;SDS011;14509;47.992;7.848;2024-01-15T09:47:16;7.20;;;4.40;;
2438;SDS011;14509;47.992;7.848;2024-01-15T09:49:19;8.38;;;5.10;;
2438;SDS011;14509;47.992;7.848;2024-01-15T09:51:21;8.60;;;5.17;;
2438;SDS011;14509;47.992;7.848;2024-01-15T09:53:23;8.18;;;5.90;;
2438;SDS011;14509;47.992;7.848;2024-01-15T09:55:26;7.38;;;5.03;;
2438;SDS011;14509;47.992;7.848;2024-01-15T09:57:29;7.25;;;5.20;;
2438;SDS011;14509;47.992;7.848;2024-01-15T09:59:32;7.95;;;5.70;;
2438;SDS011;14509;47.992;7.848;2024-01-15T10:01:36;7.93;;;5.72;;
2438;SDS011;14509;47.992;7.848;2024-01-15T10:03:40;8.25;;;5.60;;
2438;SDS011;14509;47.992;7.848;2024-01-15T10:05:42;14.30;;;9.00;;
2438;SDS011;14509;47.992;7.848;2024-01-15T10:07:45;24.60;;;16.15;;
2438;SDS011;14509;47.992;7.848;2024-01-15T10:09:47;11.82;;;6.32;;
2438;SDS011;14509;47.992;7.848;2024-01-15T10:11:49;9.82;;;6.20;;
2438;SDS011;14509;47.992;7.848;2024-01-15T10:13:51;9.95;;;5.30;;
2438;SDS011;14509;47.992;7.848;2024-01-15T10:15:54;9.32;;;6.75;;
2438;SDS011;14509;47.992;7.848;2024-01-15T10:17:56;12.60;;;7.03;;
2438;SDS011;14509;47.992;7.848;2024-01-15T10:19:59;11.68;;;6.72;;
2438;SDS011;14509;47.992;7.848;2024-01-15T10:22:01;10.25;;;6.47;;
2438;SDS011;14509;47.992;7.848;2024-01-15T10:24:04;11.82;;;6.50;;
2438;SDS011;14509;47.992;7.848;2024-01-15T10:26:06;9.25;;;6.28;;
2438;SDS011;14509;47.992;7.848;2024-01-15T10:28:08;14.85;;;7.30;;
2438;SDS011;14509;47.992;7.848;2024-01-15T10:30:10;12.40;;;6.78;;
2438;SDS011;14509;47.992;7.848;2024-01-15T10:32:16;13.57;;;7.10;;
2438;SDS011;14509;47.992;7.848;2024-01-15T10:34:18;10.68;;;6.97;;
2438;SDS011;14509;47.992;7.848;2024-01-15T10:36:20;12.75;;;7.40;;
2438;SDS011;14509;47.992;7.848;2024-01-15T10:38:23;12.30;;;7.73;;
2438;SDS011;14509;47.992;7.848;2024-01-15T10:40:25;14.35;;;8.18;;
2438;SDS011;14509;47.992;7.848;2024-01-15T10:42:28;13.10;;;9.30;;
2438;SDS011;14509;47.992;7.848;2024-01-15T10:44:30;14.80;;;8.68;;
2438;SDS011;14509;47.992;7.848;2024-01-15T10:46:32;14.07;;;8.80;;
2438;SDS011;14509;47.992;7.848;2024-01-15T10:48:37;15.07;;;8.80;;
2438;SDS011;14509;47.992;7.848;2024-01-15T10:50:40;19.00;;;10.00;;
2438;SDS011;14509;47.992;7.848;2024-01-15T10:52:42;14.68;;;8.93;;
2438;SDS011;14509;47.992;7.848;2024-01-15T10:54:44;15.07;;;9.20;;
2438;SDS011;14509;47.992;7.848;2024-01-15T10:56:47;14.23;;;9.02;;
2438;SDS011;14509;47.992;7.848;2024-01-15T10:58:50;15.07;;;9.27;;
2438;SDS011;14509;47.992;7.848;2024-01-15T11:00:53;14.77;;;9.07;;
2438;SDS011;14509;47.992;7.848;2024-01-15T11:02:56;14.75;;;9.38;;
2438;SDS011;14509;47.992;7.848;2024-01-15T11:05:04;15.30;;;9.30;;
2438;SDS011;14509;47.992;7.848;2024-01-15T11:07:06;15.80;;;9.23;;
2438;SDS011;14509;47.992;7.848;2024-01-15T11:09:08;14.77;;;9.75;;
2438;SDS011;14509;47.992;7.848;2024-01-15T11:11:09;17.33;;;10.60;;
2438;SDS011;14509;47.992;7.848;2024-01-15T11:13:13;16.88;;;10.05;;
2438;SDS011;14509;47.992;7.848;2024-01-15T11:15:17;14.93;;;9.60;;
2438;SDS011;14509;47.992;7.848;2024-01-15T11:17:22;16.27;;;10.25;;
2438;SDS011;14509;47.992;7.848;2024-01-15T11:19:24;15.90;;;9.50;;
2438;SDS011;14509;47.992;7.848;2024-01-15T11:21:27;18.88;;;10.90;;
2438;SDS011;14509;47.992;7.848;2024-01-15T11:23:41;15.57;;;10.32;;
2438;SDS011;14509;47.992;7.848;2024-01-15T11:25:43;16.77;;;10.20;;
2438;SDS011;14509;47.992;7.848;2024-01-15T11:27:46;16.05;;;9.05;;
2438;SDS011;14509;47.992;7.848;2024-01-15T11:29:48;17.63;;;10.50;;
2438;SDS011;14509;47.992;7.848;2024-01-15T11:32:05;15.65;;;9.70;;
2438;SDS011;14509;47.992;7.848;2024-01-15T11:34:08;16.98;;;11.05;;
2438;SDS011;14509;47.992;7.848;2024-01-15T11:36:09;16.15;;;10.18;;
2438;SDS011;14509;47.992;7.848;2024-01-15T11:38:13;17.35;;;11.15;;
2438;SDS011;14509;47.992;7.848;2024-01-15T11:40:38;17.30;;;10.32;;
2438;SDS011;14509;47.992;7.848;2024-01-15T11:42:43;15.40;;;10.32;;
2438;SDS011;14509;47.992;7.848;2024-01-15T11:44:46;15.63;;;10.30;;
2438;SDS011;14509;47.992;7.848;2024-01-15T11:46:49;18.63;;;11.45;;
2438;SDS011;14509;47.992;7.848;2024-01-15T11:49:00;17.90;;;12.35;;
2438;SDS011;14509;47.992;7.848;2024-01-15T11:51:05;18.73;;;12.38;;
2438;SDS011;14509;47.992;7.848;2024-01-15T11:53:15;17.52;;;12.52;;
2438;SDS011;14509;47.992;7.848;2024-01-15T11:55:19;20.53;;;12.50;;
2438;SDS011;14509;47.992;7.848;2024-01-15T11:57:25;19.23;;;11.70;;
2438;SDS011;14509;47.992;7.848;2024-01-15T11:59:33;17.95;;;11.40;;
2438;SDS011;14509;47.992;7.848;2024-01-15T12:01:35;17.33;;;13.00;;
2438;SDS011;14509;47.992;7.848;2024-01-15T12:03:37;17.17;;;11.40;;
2438;SDS011;14509;47.992;7.848;2024-01-15T12:05:40;21.92;;;13.55;;
2438;SDS011;14509;47.992;7.848;2024-01-15T12:07:42;18.63;;;11.43;;
2438;SDS011;14509;47.992;7.848;2024-01-15T12:09:47;21.65;;;14.00;;
2438;SDS011;14509;47.992;7.848;2024-01-15T12:11:50;18.58;;;12.07;;
2438;SDS011;14509;47.992;7.848;2024-01-15T12:13:57;16.13;;;10.90;;